Accueil
METAR-TAF:

METAR-TAF

Aéroports :

West Memphis, Arkansas, États-Unis

latitude: 35-08N, longitude: 090-14W, altitude: 65 m

Observation

Le bulletin a été fait il y a 1 heure et 7 minutes, à 20:53 UTC
Vent 8 kt de sud
Température 21°C
Humidité 30%
Pression 1019 hPa
Visibilité: 16.1 km
Ciel clair

METAR: KAWM 202053Z AUTO 17008KT 10SM CLR 21/03 A3010 RMK AO2 SLP190 T02110028 $

Heure: 16:00 (22:00 UTC)


TAF: absent

Observations et prévisions météorologiques de plus de 4000 aéroports (messages METAR et TAF).

Les stations disponibles sont représentées par des disques jaunes et rouges sur la carte.

Passer la souris dessus pour voir le nom de la station.

Cliquer dessus pour voir les observations et prévisions météorologiques.

Pour changer de carte: cliquez sur les boutons verts avec une croix noire pour zoomer, sur le bouton vert avec un tiret pour effectuer un zoom arrière, ou sur les flèches vertes pour les cartes adjacentes.


METAR-TAF: